createdAt,value
2023-03-20T00:02:24.241Z,9.90
2023-03-20T00:04:52.081Z,10.00
2023-03-20T00:07:19.653Z,10.00
2023-03-20T00:09:47.853Z,10.00
2023-03-20T00:12:23.817Z,10.00
2023-03-20T00:14:51.606Z,10.00
2023-03-20T00:17:21.189Z,10.00
2023-03-20T00:19:49.088Z,10.00
2023-03-20T00:22:16.658Z,10.00
2023-03-20T00:24:44.235Z,10.00
2023-03-20T00:27:17.567Z,10.10
2023-03-20T00:29:45.895Z,10.10
2023-03-20T00:32:15.080Z,10.10
2023-03-20T00:34:42.800Z,10.10
2023-03-20T00:37:14.077Z,10.00
2023-03-20T00:39:41.993Z,10.10
2023-03-20T00:42:22.079Z,10.10
2023-03-20T00:44:55.875Z,10.00
2023-03-20T00:47:27.137Z,10.00
2023-03-20T00:49:55.933Z,10.00
2023-03-20T00:52:24.598Z,10.00
2023-03-20T00:54:52.531Z,10.10
2023-03-20T00:57:30.434Z,10.10
2023-03-20T01:00:17.158Z,10.10
2023-03-20T01:02:45.929Z,10.00
2023-03-20T01:05:13.782Z,10.00
2023-03-20T01:07:41.484Z,10.00
2023-03-20T01:10:12.537Z,10.00
2023-03-20T01:12:41.988Z,10.00
2023-03-20T01:15:24.532Z,10.00
2023-03-20T01:17:52.876Z,10.00
2023-03-20T01:20:31.308Z,10.00
2023-03-20T01:22:58.869Z,10.10
2023-03-20T01:25:26.547Z,10.10
2023-03-20T01:27:55.634Z,10.10
2023-03-20T01:30:31.114Z,10.10
2023-03-20T01:32:59.852Z,10.10
2023-03-20T01:35:29.049Z,10.10
2023-03-20T01:38:01.801Z,10.10
2023-03-20T01:40:39.588Z,10.10
2023-03-20T01:43:17.362Z,10.10
2023-03-20T01:46:19.621Z,10.10
2023-03-20T01:48:52.637Z,10.00
2023-03-20T01:51:25.881Z,10.00
2023-03-20T01:54:10.782Z,10.00
2023-03-20T01:56:58.939Z,9.90
2023-03-20T01:59:30.374Z,9.80
2023-03-20T02:01:58.769Z,9.80
2023-03-20T02:04:33.298Z,9.70
2023-03-20T02:07:16.521Z,9.80
2023-03-20T02:09:50.097Z,9.80
2023-03-20T02:12:24.284Z,9.80
2023-03-20T02:14:53.135Z,9.70
2023-03-20T02:17:29.528Z,9.70
2023-03-20T02:20:10.498Z,9.70
2023-03-20T02:23:09.401Z,9.70
2023-03-20T02:26:27.107Z,9.80
2023-03-20T02:29:28.827Z,9.70
2023-03-20T02:32:51.098Z,9.70
2023-03-20T02:35:38.130Z,9.70
2023-03-20T02:38:30.760Z,9.70
2023-03-20T02:41:51.480Z,9.70
2023-03-20T02:44:44.142Z,9.70
2023-03-20T02:47:28.548Z,9.70
2023-03-20T02:50:27.507Z,9.70
2023-03-20T02:53:14.611Z,9.80
2023-03-20T02:55:51.363Z,9.80
2023-03-20T02:58:44.604Z,9.80
2023-03-20T03:01:39.035Z,9.80
2023-03-20T03:04:14.922Z,9.80
2023-03-20T03:06:47.474Z,9.80
2023-03-20T03:09:24.628Z,9.80
2023-03-20T03:12:10.546Z,9.80
2023-03-20T03:14:58.423Z,9.80
2023-03-20T03:17:31.639Z,9.80
2023-03-20T03:20:06.876Z,9.70
2023-03-20T03:22:36.265Z,9.70
2023-03-20T03:25:04.979Z,9.80
2023-03-20T03:27:43.434Z,9.80
2023-03-20T03:30:29.812Z,9.80
2023-03-20T03:33:25.176Z,9.80
2023-03-20T03:36:05.007Z,9.80
2023-03-20T03:38:52.528Z,9.80
2023-03-20T03:41:41.736Z,9.70
2023-03-20T03:45:11.216Z,9.70
2023-03-20T03:47:54.668Z,9.70
2023-03-20T03:50:34.805Z,9.70
2023-03-20T03:53:10.266Z,9.70
2023-03-20T03:55:44.882Z,9.70
2023-03-20T03:58:24.615Z,9.70
2023-03-20T04:00:54.693Z,9.80
2023-03-20T04:03:28.986Z,9.80
2023-03-20T04:06:00.610Z,9.80
2023-03-20T04:08:28.172Z,9.70
2023-03-20T04:10:55.944Z,9.70
2023-03-20T04:13:23.452Z,9.70
2023-03-20T04:15:51.350Z,9.70
2023-03-20T04:18:19.825Z,9.70
2023-03-20T04:20:48.895Z,9.70
2023-03-20T04:23:17.473Z,9.80
2023-03-20T04:25:45.451Z,9.70
2023-03-20T04:28:16.314Z,9.80
2023-03-20T04:31:02.936Z,9.80
2023-03-20T04:33:37.767Z,9.80
2023-03-20T04:36:25.511Z,9.70
2023-03-20T04:38:57.384Z,9.70
2023-03-20T04:41:25.552Z,9.70
2023-03-20T04:43:56.132Z,9.70
2023-03-20T04:46:24.617Z,9.70
2023-03-20T04:48:52.377Z,9.70
2023-03-20T04:51:20.408Z,9.70
2023-03-20T04:53:53.759Z,9.80
2023-03-20T04:56:21.330Z,9.80
2023-03-20T04:58:50.872Z,9.80
2023-03-20T05:01:21.300Z,9.80
2023-03-20T05:03:49.287Z,9.80
2023-03-20T05:06:16.903Z,9.80
2023-03-20T05:08:45.816Z,9.80
2023-03-20T05:11:13.384Z,9.80
2023-03-20T05:13:49.800Z,9.80
2023-03-20T05:16:36.200Z,9.80
2023-03-20T05:19:22.184Z,9.80
2023-03-20T05:22:12.471Z,9.80
2023-03-20T05:24:55.006Z,9.80
2023-03-20T05:27:41.036Z,9.80
2023-03-20T05:30:29.637Z,9.80
2023-03-20T05:33:15.537Z,9.80
2023-03-20T05:36:21.508Z,9.70
2023-03-20T05:38:56.453Z,9.70
2023-03-20T05:41:41.061Z,9.60
2023-03-20T05:44:36.723Z,9.70
2023-03-20T05:47:26.669Z,9.60
2023-03-20T05:50:13.990Z,9.60
2023-03-20T05:52:51.915Z,9.70
2023-03-20T05:55:33.258Z,9.70
2023-03-20T05:58:23.884Z,9.80
2023-03-20T06:01:25.704Z,9.80
2023-03-20T06:04:19.299Z,9.80
2023-03-20T06:07:06.275Z,9.80
2023-03-20T06:09:34.536Z,9.80
2023-03-20T06:12:06.773Z,9.70
2023-03-20T06:14:34.420Z,9.70
2023-03-20T06:17:06.594Z,9.70
2023-03-20T06:19:34.443Z,9.80
2023-03-20T06:22:02.246Z,9.80
2023-03-20T06:24:31.087Z,9.70
2023-03-20T06:26:59.374Z,9.80
2023-03-20T06:29:28.923Z,9.90
2023-03-20T06:32:08.851Z,9.90
2023-03-20T06:34:37.525Z,9.90
2023-03-20T06:37:05.159Z,10.00
2023-03-20T06:39:32.991Z,10.00
2023-03-20T06:42:00.634Z,10.00
2023-03-20T06:44:29.028Z,10.10
2023-03-20T06:47:02.116Z,10.10
2023-03-20T06:49:29.808Z,10.10
2023-03-20T06:51:57.407Z,10.10
2023-03-20T06:54:27.036Z,10.20
2023-03-20T06:56:55.770Z,10.20
2023-03-20T06:59:23.767Z,10.30
2023-03-20T07:01:56.569Z,10.40
2023-03-20T07:04:25.395Z,10.40
2023-03-20T07:06:55.920Z,10.40
2023-03-20T07:09:23.820Z,10.50
2023-03-20T07:11:51.320Z,10.50
2023-03-20T07:14:19.161Z,10.50
2023-03-20T07:16:52.265Z,10.50
2023-03-20T07:19:20.193Z,10.50
2023-03-20T07:22:01.703Z,10.40
2023-03-20T07:24:32.712Z,10.40
2023-03-20T07:27:01.025Z,10.40
2023-03-20T07:29:29.654Z,10.40
2023-03-20T07:32:00.977Z,10.40
2023-03-20T07:34:33.374Z,10.50
2023-03-20T07:37:01.527Z,10.50
2023-03-20T07:39:32.087Z,10.50
2023-03-20T07:42:22.263Z,10.60
2023-03-20T07:44:57.972Z,10.60
2023-03-20T07:47:26.115Z,10.70
2023-03-20T07:49:53.716Z,10.60
2023-03-20T07:52:21.357Z,10.70
2023-03-20T07:54:48.851Z,10.70
2023-03-20T07:57:16.982Z,10.70
2023-03-20T07:59:44.787Z,10.80
2023-03-20T08:02:17.390Z,10.90
2023-03-20T08:04:46.368Z,10.70
2023-03-20T08:07:14.141Z,10.70
2023-03-20T08:09:41.799Z,10.80
2023-03-20T08:12:09.338Z,10.70
2023-03-20T08:14:38.650Z,10.80
2023-03-20T08:17:15.093Z,10.80
2023-03-20T08:19:44.221Z,10.90
2023-03-20T08:22:12.415Z,11.00
2023-03-20T08:24:39.880Z,10.90
2023-03-20T08:27:07.777Z,10.80
2023-03-20T08:29:35.996Z,10.90
2023-03-20T08:32:03.750Z,10.80
2023-03-20T08:34:33.427Z,10.90
2023-03-20T08:37:04.280Z,11.00
2023-03-20T08:39:33.415Z,11.10
2023-03-20T08:42:01.417Z,11.10
2023-03-20T08:44:29.146Z,11.10
2023-03-20T08:46:56.765Z,11.10
2023-03-20T08:49:24.506Z,11.10
2023-03-20T08:51:52.063Z,11.20
2023-03-20T08:54:19.568Z,11.10
2023-03-20T08:56:47.137Z,11.10
2023-03-20T08:59:14.652Z,11.00
2023-03-20T09:01:49.870Z,11.00
2023-03-20T09:04:18.576Z,11.00
2023-03-20T09:06:46.133Z,11.00
2023-03-20T09:09:15.896Z,11.00
2023-03-20T09:11:43.547Z,11.00
2023-03-20T09:14:11.261Z,11.00
2023-03-20T09:16:39.309Z,11.00
2023-03-20T09:19:07.088Z,11.00
2023-03-20T09:21:34.655Z,11.10
2023-03-20T09:24:02.207Z,11.10
2023-03-20T09:26:30.627Z,11.30
2023-03-20T09:28:58.372Z,11.50
2023-03-20T09:31:26.026Z,11.50
2023-03-20T09:33:54.207Z,11.50
2023-03-20T09:36:22.043Z,11.70
2023-03-20T09:38:49.626Z,11.80
2023-03-20T09:41:28.358Z,11.90
2023-03-20T09:44:18.021Z,11.90
2023-03-20T09:47:19.932Z,12.00
2023-03-20T09:50:22.239Z,12.00
2023-03-20T09:53:06.989Z,12.20
2023-03-20T09:55:39.641Z,12.10
2023-03-20T09:58:18.520Z,12.20
2023-03-20T10:00:47.377Z,12.10
2023-03-20T10:03:24.922Z,12.00
2023-03-20T10:06:05.911Z,12.10
2023-03-20T10:08:37.915Z,12.00
2023-03-20T10:11:38.745Z,12.00
2023-03-20T10:14:32.965Z,11.90
2023-03-20T10:17:26.453Z,11.90
2023-03-20T10:20:23.115Z,11.90
2023-03-20T10:23:03.752Z,11.90
2023-03-20T10:25:37.788Z,11.90
2023-03-20T10:28:19.868Z,11.70
2023-03-20T10:31:30.271Z,11.70
2023-03-20T10:34:26.306Z,11.80
2023-03-20T10:37:50.840Z,11.90
2023-03-20T10:40:32.851Z,11.90
2023-03-20T10:43:06.598Z,11.80
2023-03-20T10:45:35.372Z,11.90
2023-03-20T10:48:13.867Z,11.80
2023-03-20T10:50:50.145Z,11.80
2023-03-20T10:53:50.119Z,11.70
2023-03-20T10:56:47.655Z,11.70
2023-03-20T10:59:36.748Z,11.60
2023-03-20T11:02:13.856Z,11.70
2023-03-20T11:04:41.895Z,11.70
2023-03-20T11:07:22.570Z,11.80
2023-03-20T11:10:05.348Z,11.90
2023-03-20T11:12:36.570Z,11.90
2023-03-20T11:15:25.367Z,11.90
2023-03-20T11:17:58.971Z,12.00
2023-03-20T11:20:37.441Z,12.10
2023-03-20T11:23:10.630Z,12.20
2023-03-20T11:26:20.894Z,12.20
2023-03-20T11:28:54.304Z,12.10
2023-03-20T11:31:41.293Z,12.00
2023-03-20T11:34:14.880Z,12.10
2023-03-20T11:37:10.170Z,12.20
2023-03-20T11:39:39.997Z,12.30
2023-03-20T11:42:24.871Z,12.40
2023-03-20T11:45:16.249Z,12.50
2023-03-20T11:47:48.969Z,12.40
2023-03-20T11:50:36.095Z,12.40
2023-03-20T11:53:39.000Z,12.40
2023-03-20T11:56:24.885Z,12.40
2023-03-20T11:59:18.674Z,12.60
2023-03-20T12:01:55.697Z,12.70
2023-03-20T12:04:37.380Z,12.70
2023-03-20T12:07:05.024Z,12.70
2023-03-20T12:09:52.442Z,12.70
2023-03-20T12:12:54.109Z,12.80
2023-03-20T12:15:40.091Z,12.90
2023-03-20T12:18:40.838Z,12.80
2023-03-20T12:21:33.211Z,12.80
2023-03-20T12:24:38.076Z,12.90
2023-03-20T12:27:50.353Z,13.10
2023-03-20T12:30:29.439Z,13.10
2023-03-20T12:33:12.272Z,13.10
2023-03-20T12:35:47.294Z,13.20
2023-03-20T12:38:28.258Z,13.00
2023-03-20T12:41:15.257Z,13.00
2023-03-20T12:43:59.223Z,13.00
2023-03-20T12:46:37.227Z,12.90
2023-03-20T12:49:39.325Z,12.90
2023-03-20T12:52:37.077Z,12.80
2023-03-20T12:55:26.007Z,12.90
2023-03-20T12:58:21.880Z,12.90
2023-03-20T13:01:21.595Z,12.90
2023-03-20T13:04:46.950Z,13.00
2023-03-20T13:07:27.444Z,13.20
2023-03-20T13:10:12.742Z,13.20
2023-03-20T13:13:04.220Z,13.30
2023-03-20T13:16:08.784Z,13.00
2023-03-20T13:19:11.510Z,13.10
2023-03-20T13:22:13.901Z,13.30
2023-03-20T13:24:49.636Z,13.60
2023-03-20T13:27:39.221Z,13.90
2023-03-20T13:30:36.825Z,14.00
2023-03-20T13:33:44.228Z,14.00
2023-03-20T13:36:41.987Z,13.90
2023-03-20T13:39:44.407Z,13.90
2023-03-20T13:42:23.817Z,13.90
2023-03-20T13:44:58.335Z,13.80
2023-03-20T13:47:29.109Z,13.70
2023-03-20T13:50:35.678Z,13.80
2023-03-20T13:53:21.967Z,13.90
2023-03-20T13:56:08.964Z,13.90
2023-03-20T13:58:58.976Z,13.90
2023-03-20T14:02:36.876Z,13.80
2023-03-20T14:05:20.363Z,13.90
2023-03-20T14:07:50.089Z,13.70
2023-03-20T14:10:24.054Z,13.70
2023-03-20T14:13:06.140Z,13.70
2023-03-20T14:15:40.592Z,13.70
2023-03-20T14:18:16.994Z,13.70
2023-03-20T14:21:01.028Z,13.80
2023-03-20T14:23:40.423Z,13.80
2023-03-20T14:26:29.454Z,13.70
2023-03-20T14:29:31.986Z,13.80
2023-03-20T14:32:12.859Z,13.90
2023-03-20T14:35:18.955Z,13.90
2023-03-20T14:38:11.212Z,13.90
2023-03-20T14:40:54.115Z,14.00
2023-03-20T14:43:50.997Z,14.00
2023-03-20T14:46:57.073Z,13.90
2023-03-20T14:49:51.793Z,14.00
2023-03-20T14:53:07.615Z,14.00
2023-03-20T14:55:55.336Z,14.00
2023-03-20T14:58:47.700Z,13.90
2023-03-20T15:01:38.352Z,13.70
2023-03-20T15:04:31.201Z,13.70
2023-03-20T15:07:14.620Z,13.70
2023-03-20T15:09:45.661Z,13.60
2023-03-20T15:12:17.624Z,13.40
2023-03-20T15:14:59.262Z,13.30
2023-03-20T15:17:39.704Z,13.30
2023-03-20T15:20:25.272Z,13.50
2023-03-20T15:23:01.586Z,13.50
2023-03-20T15:25:49.214Z,13.50
2023-03-20T15:28:26.029Z,13.40
2023-03-20T15:30:58.423Z,13.20
2023-03-20T15:33:39.318Z,13.20
2023-03-20T15:36:11.692Z,13.20
2023-03-20T15:38:39.649Z,13.20
2023-03-20T15:41:23.798Z,13.20
2023-03-20T15:43:51.265Z,13.20
2023-03-20T15:46:19.542Z,13.10
2023-03-20T15:48:50.303Z,13.10
2023-03-20T15:51:20.079Z,13.10
2023-03-20T15:53:48.926Z,13.00
2023-03-20T15:56:20.121Z,13.00
2023-03-20T15:58:55.038Z,12.80
2023-03-20T16:01:25.616Z,12.80
2023-03-20T16:03:58.785Z,12.90
2023-03-20T16:06:27.623Z,13.10
2023-03-20T16:09:05.357Z,13.00
2023-03-20T16:11:42.822Z,13.00
2023-03-20T16:14:21.997Z,12.90
2023-03-20T16:16:53.574Z,12.90
2023-03-20T16:19:21.688Z,12.80
2023-03-20T16:21:57.726Z,12.70
2023-03-20T16:24:29.968Z,12.70
2023-03-20T16:26:58.005Z,12.80
2023-03-20T16:29:27.796Z,12.80
2023-03-20T16:32:38.991Z,12.70
2023-03-20T16:35:22.329Z,12.60
2023-03-20T16:37:56.204Z,12.60
2023-03-20T16:40:33.898Z,12.60
2023-03-20T16:43:17.399Z,12.50
2023-03-20T16:45:52.641Z,12.50
2023-03-20T16:48:37.697Z,12.40
2023-03-20T16:51:20.988Z,12.30
2023-03-20T16:53:53.722Z,12.30
2023-03-20T16:56:40.468Z,12.20
2023-03-20T16:59:18.725Z,12.20
2023-03-20T17:01:48.543Z,12.00
2023-03-20T17:04:35.249Z,12.00
2023-03-20T17:07:19.133Z,11.90
2023-03-20T17:10:00.465Z,12.00
2023-03-20T17:12:32.307Z,12.00
2023-03-20T17:14:59.787Z,12.00
2023-03-20T17:17:27.370Z,12.00
2023-03-20T17:19:54.898Z,12.00
2023-03-20T17:22:25.835Z,12.00
2023-03-20T17:24:53.554Z,11.90
2023-03-20T17:27:21.612Z,11.90
2023-03-20T17:29:49.737Z,11.90
2023-03-20T17:32:23.712Z,11.90
2023-03-20T17:34:51.683Z,12.00
2023-03-20T17:37:29.468Z,11.90
2023-03-20T17:39:57.665Z,11.80
2023-03-20T17:42:30.949Z,11.80
2023-03-20T17:45:00.826Z,11.70
2023-03-20T17:47:29.532Z,11.70
2023-03-20T17:49:57.208Z,11.70
2023-03-20T17:52:27.714Z,11.60
2023-03-20T17:54:56.141Z,11.60
2023-03-20T17:57:36.991Z,11.60
2023-03-20T18:00:20.026Z,11.60
2023-03-20T18:02:47.649Z,11.60
2023-03-20T18:05:15.338Z,11.60
2023-03-20T18:07:44.183Z,11.50
2023-03-20T18:10:25.668Z,11.60
2023-03-20T18:12:53.229Z,11.60
2023-03-20T18:15:20.776Z,11.60
2023-03-20T18:17:48.457Z,11.70
2023-03-20T18:20:32.575Z,11.70
2023-03-20T18:23:00.154Z,11.70
2023-03-20T18:25:28.224Z,11.60
2023-03-20T18:27:58.045Z,11.60
2023-03-20T18:30:39.215Z,11.60
2023-03-20T18:33:07.795Z,11.60
2023-03-20T18:35:37.227Z,11.60
2023-03-20T18:38:05.435Z,11.70
2023-03-20T18:40:37.509Z,11.70
2023-03-20T18:43:05.766Z,11.70
2023-03-20T18:45:33.399Z,11.70
2023-03-20T18:48:03.718Z,11.60
2023-03-20T18:50:38.316Z,11.60
2023-03-20T18:53:07.247Z,11.60
2023-03-20T18:55:35.802Z,11.50
2023-03-20T18:58:04.025Z,11.40
2023-03-20T19:00:39.934Z,11.40
2023-03-20T19:03:11.005Z,11.40
2023-03-20T19:05:39.168Z,11.40
2023-03-20T19:08:06.679Z,11.50
2023-03-20T19:10:39.292Z,11.40
2023-03-20T19:13:08.032Z,11.40
2023-03-20T19:15:37.280Z,11.50
2023-03-20T19:18:08.101Z,11.50
2023-03-20T19:20:42.322Z,11.60
2023-03-20T19:23:16.330Z,11.60
2023-03-20T19:25:47.667Z,11.70
2023-03-20T19:28:39.180Z,11.60
2023-03-20T19:31:10.996Z,11.60
2023-03-20T19:33:39.774Z,11.60
2023-03-20T19:36:32.259Z,11.60
2023-03-20T19:39:01.756Z,11.60
2023-03-20T19:41:32.102Z,11.60
2023-03-20T19:44:01.328Z,11.60
2023-03-20T19:46:40.266Z,11.60
2023-03-20T19:49:20.889Z,11.60
2023-03-20T19:51:49.373Z,11.60
2023-03-20T19:54:17.294Z,11.60
2023-03-20T19:56:44.817Z,11.60
2023-03-20T19:59:16.011Z,11.60
2023-03-20T20:01:45.444Z,11.50
2023-03-20T20:04:13.199Z,11.40
2023-03-20T20:06:41.854Z,11.50
2023-03-20T20:09:09.638Z,11.50
2023-03-20T20:11:37.171Z,11.50
2023-03-20T20:14:08.542Z,11.40
2023-03-20T20:16:39.789Z,11.30
2023-03-20T20:19:07.754Z,11.30
2023-03-20T20:24:23.010Z,11.30
2023-03-20T20:27:14.759Z,11.20
2023-03-20T20:29:40.669Z,11.30
2023-03-20T20:32:08.263Z,11.30
2023-03-20T20:40:16.638Z,11.30
2023-03-20T20:42:51.487Z,11.30
2023-03-20T20:45:21.520Z,11.20
2023-03-20T20:47:50.484Z,11.20
2023-03-20T20:50:25.822Z,11.20
2023-03-20T20:52:54.718Z,11.10
2023-03-20T20:55:24.217Z,11.10
2023-03-20T20:57:55.509Z,11.10
2023-03-20T21:00:34.292Z,11.10
2023-03-20T21:03:09.090Z,11.10
2023-03-20T21:05:38.562Z,11.10
2023-03-20T21:08:07.060Z,11.10
2023-03-20T21:10:34.894Z,11.10
2023-03-20T21:13:02.405Z,11.10
2023-03-20T21:15:29.935Z,11.00
2023-03-20T21:18:01.612Z,11.10
2023-03-20T21:20:31.027Z,11.10
2023-03-20T21:22:59.440Z,11.10
2023-03-20T21:25:47.005Z,11.10
2023-03-20T21:28:15.672Z,11.10
2023-03-20T21:31:09.074Z,11.10
2023-03-20T21:33:36.855Z,11.20
2023-03-20T21:36:06.034Z,11.20
2023-03-20T21:41:22.285Z,11.10
2023-03-20T21:43:50.009Z,11.10
2023-03-20T21:49:54.482Z,11.10
2023-03-20T22:03:14.117Z,11.00
2023-03-20T22:06:35.354Z,11.00
2023-03-20T22:26:22.451Z,11.10
2023-03-20T22:42:47.934Z,11.00
2023-03-20T22:45:02.577Z,11.10
2023-03-20T22:47:31.669Z,11.10
2023-03-20T22:49:59.330Z,11.10
2023-03-20T22:52:38.362Z,11.10
2023-03-20T22:55:13.325Z,11.00
2023-03-20T22:57:47.606Z,11.00
2023-03-20T23:00:20.564Z,11.00
2023-03-20T23:02:48.038Z,11.00
2023-03-20T23:05:15.678Z,11.00
2023-03-20T23:07:44.270Z,11.00
2023-03-20T23:10:13.217Z,10.90
2023-03-20T23:12:42.893Z,10.90
2023-03-20T23:15:11.781Z,10.90
2023-03-20T23:17:39.363Z,11.00
2023-03-20T23:20:12.116Z,11.00
2023-03-20T23:22:40.724Z,10.90
2023-03-20T23:25:18.591Z,10.90
2023-03-20T23:27:56.783Z,10.80
2023-03-20T23:30:27.610Z,10.80
2023-03-20T23:32:58.342Z,10.80
2023-03-20T23:35:25.916Z,10.80
2023-03-20T23:37:53.455Z,10.70
2023-03-20T23:40:21.550Z,10.70
2023-03-20T23:42:49.078Z,10.70
2023-03-20T23:45:20.601Z,10.70
2023-03-20T23:47:49.412Z,10.70
2023-03-20T23:50:30.039Z,10.80
2023-03-20T23:53:13.681Z,10.80
2023-03-20T23:55:49.851Z,10.80
2023-03-20T23:58:18.556Z,10.80
